sensor_id;sensor_type;location;lat;lon;timestamp;pressure;altitude;pressure_sealevel;temperature;humidity
42887;BME280;29032;56.028;92.904;2023-05-16T00:03:27;98878.13;;;9.84;34.19
42887;BME280;29032;56.028;92.904;2023-05-16T00:08:48;98871.53;;;9.87;34.87
42887;BME280;29032;56.028;92.904;2023-05-16T00:13:51;98873.16;;;9.95;34.81
42887;BME280;29032;56.028;92.904;2023-05-16T00:24:13;98870.28;;;10.01;34.81
42887;BME280;29032;56.028;92.904;2023-05-16T00:29:17;98869.34;;;10.12;35.29
42887;BME280;29032;56.028;92.904;2023-05-16T00:34:19;98872.66;;;10.10;35.31
42887;BME280;29032;56.028;92.904;2023-05-16T00:39:21;98867.09;;;10.10;34.99
42887;BME280;29032;56.028;92.904;2023-05-16T00:44:24;98862.09;;;10.09;35.70
42887;BME280;29032;56.028;92.904;2023-05-16T00:49:44;98874.56;;;10.15;34.99
42887;BME280;29032;56.028;92.904;2023-05-16T00:54:46;98862.63;;;10.07;35.95
42887;BME280;29032;56.028;92.904;2023-05-16T00:59:50;98875.44;;;10.23;36.42
42887;BME280;29032;56.028;92.904;2023-05-16T01:04:52;98881.19;;;10.39;36.26
42887;BME280;29032;56.028;92.904;2023-05-16T01:09:55;98886.75;;;10.52;36.31
42887;BME280;29032;56.028;92.904;2023-05-16T01:15:03;98869.03;;;10.68;35.95
42887;BME280;29032;56.028;92.904;2023-05-16T01:20:32;98882.03;;;10.73;36.22
42887;BME280;29032;56.028;92.904;2023-05-16T01:25:54;98889.72;;;10.67;36.82
42887;BME280;29032;56.028;92.904;2023-05-16T01:30:58;98888.69;;;10.70;37.77
42887;BME280;29032;56.028;92.904;2023-05-16T01:36:07;98873.91;;;10.75;38.14
42887;BME280;29032;56.028;92.904;2023-05-16T01:41:16;98879.59;;;10.83;38.20
42887;BME280;29032;56.028;92.904;2023-05-16T01:46:24;98869.56;;;10.93;38.61
42887;BME280;29032;56.028;92.904;2023-05-16T01:51:31;98870.94;;;11.00;38.88
42887;BME280;29032;56.028;92.904;2023-05-16T01:56:52;98869.94;;;11.10;39.54
42887;BME280;29032;56.028;92.904;2023-05-16T02:01:57;98873.91;;;11.02;40.19
42887;BME280;29032;56.028;92.904;2023-05-16T02:12:20;98875.00;;;10.99;40.58
42887;BME280;29032;56.028;92.904;2023-05-16T02:17:24;98878.81;;;11.09;40.37
42887;BME280;29032;56.028;92.904;2023-05-16T02:22:44;98879.41;;;11.28;38.84
42887;BME280;29032;56.028;92.904;2023-05-16T02:28:04;98876.00;;;11.22;39.88
42887;BME280;29032;56.028;92.904;2023-05-16T02:33:08;98869.78;;;11.29;40.27
42887;BME280;29032;56.028;92.904;2023-05-16T02:43:31;98872.97;;;11.33;41.71
42887;BME280;29032;56.028;92.904;2023-05-16T02:48:34;98883.19;;;11.38;41.79
42887;BME280;29032;56.028;92.904;2023-05-16T02:53:36;98884.00;;;11.47;42.06
42887;BME280;29032;56.028;92.904;2023-05-16T03:04:00;98884.69;;;11.40;42.19
42887;BME280;29032;56.028;92.904;2023-05-16T03:09:02;98886.44;;;11.29;43.46
42887;BME280;29032;56.028;92.904;2023-05-16T03:14:04;98880.13;;;11.29;44.20
42887;BME280;29032;56.028;92.904;2023-05-16T03:19:07;98889.75;;;11.28;44.96
42887;BME280;29032;56.028;92.904;2023-05-16T03:24:10;98882.22;;;11.15;45.06
42887;BME280;29032;56.028;92.904;2023-05-16T03:29:12;98887.03;;;11.15;45.32
42887;BME280;29032;56.028;92.904;2023-05-16T03:39:54;98873.91;;;11.36;44.14
42887;BME280;29032;56.028;92.904;2023-05-16T03:44:56;98867.47;;;11.20;46.67
42887;BME280;29032;56.028;92.904;2023-05-16T03:50:00;98869.69;;;11.22;47.23
42887;BME280;29032;56.028;92.904;2023-05-16T04:00:22;98867.69;;;11.43;46.64
42887;BME280;29032;56.028;92.904;2023-05-16T04:05:44;98854.50;;;11.57;47.19
42887;BME280;29032;56.028;92.904;2023-05-16T04:10:46;98850.75;;;11.75;46.48
42887;BME280;29032;56.028;92.904;2023-05-16T04:15:48;98854.34;;;11.83;46.49
42887;BME280;29032;56.028;92.904;2023-05-16T04:20:51;98852.44;;;11.78;47.45
42887;BME280;29032;56.028;92.904;2023-05-16T04:25:53;98848.56;;;11.81;47.26
42887;BME280;29032;56.028;92.904;2023-05-16T04:30:55;98843.38;;;11.78;47.26
42887;BME280;29032;56.028;92.904;2023-05-16T04:41:19;98844.00;;;11.63;47.66
42887;BME280;29032;56.028;92.904;2023-05-16T04:51:43;98839.78;;;11.70;49.34
42887;BME280;29032;56.028;92.904;2023-05-16T05:02:05;98835.72;;;11.71;49.66
42887;BME280;29032;56.028;92.904;2023-05-16T05:07:09;98831.28;;;11.75;48.78
42887;BME280;29032;56.028;92.904;2023-05-16T05:12:11;98826.75;;;11.64;49.13
42887;BME280;29032;56.028;92.904;2023-05-16T05:17:31;98823.72;;;11.55;48.62
42887;BME280;29032;56.028;92.904;2023-05-16T05:22:35;98818.91;;;11.34;50.19
42887;BME280;29032;56.028;92.904;2023-05-16T05:27:55;98811.97;;;11.07;50.55
42887;BME280;29032;56.028;92.904;2023-05-16T05:32:57;98812.41;;;10.98;50.68
42887;BME280;29032;56.028;92.904;2023-05-16T05:38:01;98811.34;;;11.01;50.60
42887;BME280;29032;56.028;92.904;2023-05-16T05:43:03;98806.19;;;11.05;51.26
42887;BME280;29032;56.028;92.904;2023-05-16T05:53:44;98795.41;;;11.35;51.82
42887;BME280;29032;56.028;92.904;2023-05-16T05:58:47;98788.66;;;11.52;51.18
42887;BME280;29032;56.028;92.904;2023-05-16T06:03:49;98783.78;;;11.65;51.68
42887;BME280;29032;56.028;92.904;2023-05-16T06:09:10;98778.69;;;11.77;50.67
42887;BME280;29032;56.028;92.904;2023-05-16T06:20:09;98772.22;;;11.82;49.69
42887;BME280;29032;56.028;92.904;2023-05-16T06:25:13;98766.03;;;11.69;51.35
42887;BME280;29032;56.028;92.904;2023-05-16T06:35:36;98755.66;;;11.98;50.76
42887;BME280;29032;56.028;92.904;2023-05-16T06:40:39;98758.13;;;12.09;49.64
42887;BME280;29032;56.028;92.904;2023-05-16T06:45:41;98752.97;;;12.13;50.37
42887;BME280;29032;56.028;92.904;2023-05-16T06:50:47;98743.41;;;12.29;50.43
42887;BME280;29032;56.028;92.904;2023-05-16T06:55:50;98739.03;;;12.41;49.38
42887;BME280;29032;56.028;92.904;2023-05-16T07:00:52;98728.31;;;12.53;48.73
42887;BME280;29032;56.028;92.904;2023-05-16T07:05:54;98732.06;;;12.71;48.76
42887;BME280;29032;56.028;92.904;2023-05-16T07:10:58;98715.69;;;12.60;48.80
42887;BME280;29032;56.028;92.904;2023-05-16T07:16:00;98726.81;;;12.60;48.98
42887;BME280;29032;56.028;92.904;2023-05-16T07:21:02;98731.97;;;12.40;49.81
42887;BME280;29032;56.028;92.904;2023-05-16T07:26:05;98726.06;;;12.15;51.49
42887;BME280;29032;56.028;92.904;2023-05-16T07:36:46;98749.06;;;11.80;52.83
42887;BME280;29032;56.028;92.904;2023-05-16T07:41:49;98748.47;;;11.53;55.52
42887;BME280;29032;56.028;92.904;2023-05-16T07:52:30;98768.69;;;11.32;55.99
42887;BME280;29032;56.028;92.904;2023-05-16T07:57:33;98754.22;;;11.26;56.67
42887;BME280;29032;56.028;92.904;2023-05-16T08:02:54;98750.16;;;11.27;56.26
42887;BME280;29032;56.028;92.904;2023-05-16T08:07:56;98756.94;;;11.47;55.42
42887;BME280;29032;56.028;92.904;2023-05-16T08:12:59;98757.00;;;11.76;56.66
42887;BME280;29032;56.028;92.904;2023-05-16T08:18:02;98751.72;;;11.93;54.36
42887;BME280;29032;56.028;92.904;2023-05-16T08:23:04;98762.75;;;12.06;53.46
42887;BME280;29032;56.028;92.904;2023-05-16T08:28:25;98769.09;;;12.14;53.26
42887;BME280;29032;56.028;92.904;2023-05-16T08:33:27;98762.00;;;12.06;53.86
42887;BME280;29032;56.028;92.904;2023-05-16T08:38:29;98769.06;;;12.07;55.05
42887;BME280;29032;56.028;92.904;2023-05-16T08:43:51;98769.47;;;12.11;54.16
42887;BME280;29032;56.028;92.904;2023-05-16T08:49:12;98779.47;;;11.85;55.77
42887;BME280;29032;56.028;92.904;2023-05-16T08:54:15;98786.44;;;11.71;55.17
42887;BME280;29032;56.028;92.904;2023-05-16T08:59:18;98775.06;;;11.61;55.55
42887;BME280;29032;56.028;92.904;2023-05-16T09:04:21;98775.38;;;11.58;55.84
42887;BME280;29032;56.028;92.904;2023-05-16T09:09:23;98775.91;;;11.77;56.07
42887;BME280;29032;56.028;92.904;2023-05-16T09:14:27;98783.25;;;11.96;55.41
42887;BME280;29032;56.028;92.904;2023-05-16T09:19:36;98776.50;;;11.83;56.67
42887;BME280;29032;56.028;92.904;2023-05-16T09:24:38;98775.41;;;11.86;55.67
42887;BME280;29032;56.028;92.904;2023-05-16T09:29:43;98785.13;;;12.01;55.13
42887;BME280;29032;56.028;92.904;2023-05-16T09:34:46;98780.00;;;12.05;53.47
42887;BME280;29032;56.028;92.904;2023-05-16T09:39:49;98784.53;;;11.95;53.45
42887;BME280;29032;56.028;92.904;2023-05-16T09:44:54;98784.84;;;11.83;53.86
42887;BME280;29032;56.028;92.904;2023-05-16T09:49:56;98787.97;;;11.80;51.92
42887;BME280;29032;56.028;92.904;2023-05-16T09:54:58;98790.88;;;11.74;51.54
42887;BME280;29032;56.028;92.904;2023-05-16T10:00:06;98791.69;;;11.82;50.56
42887;BME280;29032;56.028;92.904;2023-05-16T10:05:11;98793.94;;;11.84;50.79
42887;BME280;29032;56.028;92.904;2023-05-16T10:10:13;98798.25;;;11.92;50.42
42887;BME280;29032;56.028;92.904;2023-05-16T10:15:17;98801.41;;;11.97;49.95
42887;BME280;29032;56.028;92.904;2023-05-16T10:20:20;98797.38;;;11.98;49.10
42887;BME280;29032;56.028;92.904;2023-05-16T10:25:27;98797.38;;;11.98;49.86
42887;BME280;29032;56.028;92.904;2023-05-16T10:30:33;98796.69;;;12.05;49.29
42887;BME280;29032;56.028;92.904;2023-05-16T10:35:35;98800.75;;;12.04;49.35
42887;BME280;29032;56.028;92.904;2023-05-16T10:40:38;98795.63;;;12.15;49.98
42887;BME280;29032;56.028;92.904;2023-05-16T10:45:42;98795.34;;;12.27;49.28
42887;BME280;29032;56.028;92.904;2023-05-16T10:50:45;98789.97;;;12.29;49.65
42887;BME280;29032;56.028;92.904;2023-05-16T10:56:10;98795.75;;;12.38;48.58
42887;BME280;29032;56.028;92.904;2023-05-16T11:01:21;98787.66;;;12.48;48.25
42887;BME280;29032;56.028;92.904;2023-05-16T11:06:25;98782.44;;;12.44;48.41
42887;BME280;29032;56.028;92.904;2023-05-16T11:11:42;98783.47;;;12.70;47.82
42887;BME280;29032;56.028;92.904;2023-05-16T11:16:48;98789.34;;;13.02;47.31
42887;BME280;29032;56.028;92.904;2023-05-16T11:22:09;98790.97;;;12.90;46.71
42887;BME280;29032;56.028;92.904;2023-05-16T11:27:12;98779.94;;;12.62;46.75
42887;BME280;29032;56.028;92.904;2023-05-16T11:32:18;98778.78;;;12.57;47.04
42887;BME280;29032;56.028;92.904;2023-05-16T11:37:21;98786.94;;;12.55;46.97
42887;BME280;29032;56.028;92.904;2023-05-16T11:42:23;98778.31;;;12.38;47.61
42887;BME280;29032;56.028;92.904;2023-05-16T11:47:26;98780.94;;;12.43;46.75
42887;BME280;29032;56.028;92.904;2023-05-16T11:52:30;98781.47;;;12.34;46.97
42887;BME280;29032;56.028;92.904;2023-05-16T11:57:32;98782.00;;;12.25;46.75
42887;BME280;29032;56.028;92.904;2023-05-16T12:02:36;98776.84;;;12.37;46.12
42887;BME280;29032;56.028;92.904;2023-05-16T12:07:38;98781.72;;;12.15;46.41
42887;BME280;29032;56.028;92.904;2023-05-16T12:12:41;98780.19;;;12.35;45.88
42887;BME280;29032;56.028;92.904;2023-05-16T12:17:45;98779.69;;;12.52;46.55
42887;BME280;29032;56.028;92.904;2023-05-16T12:22:47;98772.13;;;12.60;46.63
42887;BME280;29032;56.028;92.904;2023-05-16T12:27:49;98772.16;;;12.68;45.99
42887;BME280;29032;56.028;92.904;2023-05-16T12:32:59;98768.47;;;12.81;45.88
42887;BME280;29032;56.028;92.904;2023-05-16T12:38:03;98773.09;;;12.78;45.80
42887;BME280;29032;56.028;92.904;2023-05-16T12:43:12;98773.69;;;12.84;46.78
42887;BME280;29032;56.028;92.904;2023-05-16T12:48:16;98778.50;;;12.84;46.05
42887;BME280;29032;56.028;92.904;2023-05-16T12:53:18;98785.53;;;12.77;45.54
42887;BME280;29032;56.028;92.904;2023-05-16T12:58:20;98777.72;;;12.68;46.60
42887;BME280;29032;56.028;92.904;2023-05-16T13:03:24;98780.88;;;12.72;45.83
42887;BME280;29032;56.028;92.904;2023-05-16T13:08:27;98778.13;;;12.80;46.15
42887;BME280;29032;56.028;92.904;2023-05-16T13:13:29;98776.59;;;12.71;45.54
42887;BME280;29032;56.028;92.904;2023-05-16T13:18:32;98776.81;;;12.81;46.30
42887;BME280;29032;56.028;92.904;2023-05-16T13:23:34;98782.56;;;12.75;46.16
42887;BME280;29032;56.028;92.904;2023-05-16T13:28:37;98789.81;;;12.78;46.75
42887;BME280;29032;56.028;92.904;2023-05-16T13:33:40;98796.31;;;12.81;45.98
42887;BME280;29032;56.028;92.904;2023-05-16T13:38:42;98789.63;;;12.76;46.21
42887;BME280;29032;56.028;92.904;2023-05-16T13:43:44;98793.69;;;12.67;46.65
42887;BME280;29032;56.028;92.904;2023-05-16T13:48:48;98789.94;;;12.65;45.62
42887;BME280;29032;56.028;92.904;2023-05-16T13:53:50;98795.44;;;12.50;46.67
42887;BME280;29032;56.028;92.904;2023-05-16T13:58:52;98801.31;;;12.38;47.21
42887;BME280;29032;56.028;92.904;2023-05-16T14:03:56;98810.19;;;12.29;47.90
42887;BME280;29032;56.028;92.904;2023-05-16T14:08:58;98792.22;;;12.09;47.41
42887;BME280;29032;56.028;92.904;2023-05-16T14:14:01;98807.47;;;12.16;48.95
42887;BME280;29032;56.028;92.904;2023-05-16T14:19:05;98808.34;;;12.32;48.10
42887;BME280;29032;56.028;92.904;2023-05-16T14:24:07;98818.75;;;12.10;48.87
42887;BME280;29032;56.028;92.904;2023-05-16T14:29:09;98817.06;;;12.07;49.65
42887;BME280;29032;56.028;92.904;2023-05-16T14:34:13;98808.44;;;12.18;49.06
42887;BME280;29032;56.028;92.904;2023-05-16T14:39:15;98811.06;;;12.24;48.12
42887;BME280;29032;56.028;92.904;2023-05-16T14:44:17;98811.22;;;12.18;48.07
42887;BME280;29032;56.028;92.904;2023-05-16T14:49:21;98808.28;;;12.24;48.42
42887;BME280;29032;56.028;92.904;2023-05-16T14:54:26;98811.75;;;12.17;47.87
42887;BME280;29032;56.028;92.904;2023-05-16T14:59:28;98810.78;;;12.07;48.20
42887;BME280;29032;56.028;92.904;2023-05-16T15:04:32;98814.28;;;12.07;48.52
42887;BME280;29032;56.028;92.904;2023-05-16T15:09:34;98817.47;;;12.11;48.10
42887;BME280;29032;56.028;92.904;2023-05-16T15:14:36;98827.25;;;12.05;49.33
42887;BME280;29032;56.028;92.904;2023-05-16T15:19:40;98813.69;;;12.01;48.94
42887;BME280;29032;56.028;92.904;2023-05-16T15:24:42;98810.31;;;11.95;49.65
42887;BME280;29032;56.028;92.904;2023-05-16T15:29:44;98812.28;;;11.87;50.18
42887;BME280;29032;56.028;92.904;2023-05-16T15:34:48;98805.50;;;11.96;50.49
42887;BME280;29032;56.028;92.904;2023-05-16T15:39:50;98798.44;;;11.95;50.00
42887;BME280;29032;56.028;92.904;2023-05-16T15:44:52;98797.84;;;11.88;49.82
42887;BME280;29032;56.028;92.904;2023-05-16T15:49:56;98790.88;;;11.74;50.75
42887;BME280;29032;56.028;92.904;2023-05-16T15:54:58;98785.41;;;11.61;51.23
42887;BME280;29032;56.028;92.904;2023-05-16T16:00:00;98784.88;;;11.62;50.69
42887;BME280;29032;56.028;92.904;2023-05-16T16:05:04;98783.03;;;11.65;50.85
42887;BME280;29032;56.028;92.904;2023-05-16T16:10:07;98769.69;;;11.63;50.51
42887;BME280;29032;56.028;92.904;2023-05-16T16:15:10;98764.88;;;11.64;50.77
42887;BME280;29032;56.028;92.904;2023-05-16T16:20:14;98752.53;;;11.73;49.99
42887;BME280;29032;56.028;92.904;2023-05-16T16:25:16;98753.69;;;11.77;50.52
42887;BME280;29032;56.028;92.904;2023-05-16T16:30:18;98739.09;;;11.84;50.50
42887;BME280;29032;56.028;92.904;2023-05-16T16:35:22;98755.06;;;11.91;50.08
42887;BME280;29032;56.028;92.904;2023-05-16T16:40:24;98735.28;;;11.74;50.82
42887;BME280;29032;56.028;92.904;2023-05-16T16:45:26;98731.91;;;11.68;51.29
42887;BME280;29032;56.028;92.904;2023-05-16T16:50:30;98733.44;;;11.69;51.32
42887;BME280;29032;56.028;92.904;2023-05-16T16:55:32;98730.03;;;11.63;51.19
42887;BME280;29032;56.028;92.904;2023-05-16T17:00:34;98724.50;;;11.63;51.57
42887;BME280;29032;56.028;92.904;2023-05-16T17:05:37;98719.41;;;11.82;50.05
42887;BME280;29032;56.028;92.904;2023-05-16T17:10:39;98716.84;;;11.84;50.39
42887;BME280;29032;56.028;92.904;2023-05-16T17:15:41;98707.94;;;11.86;50.43
42887;BME280;29032;56.028;92.904;2023-05-16T17:20:45;98701.69;;;11.93;51.41
42887;BME280;29032;56.028;92.904;2023-05-16T17:25:47;98701.47;;;11.83;50.62
42887;BME280;29032;56.028;92.904;2023-05-16T17:30:49;98689.88;;;11.72;51.62
42887;BME280;29032;56.028;92.904;2023-05-16T17:35:53;98679.06;;;11.60;50.93
42887;BME280;29032;56.028;92.904;2023-05-16T17:40:55;98669.69;;;11.43;51.56
42887;BME280;29032;56.028;92.904;2023-05-16T17:45:57;98671.69;;;11.34;51.88
42887;BME280;29032;56.028;92.904;2023-05-16T17:51:01;98665.16;;;11.32;52.47
42887;BME280;29032;56.028;92.904;2023-05-16T17:56:03;98661.13;;;11.12;51.81
42887;BME280;29032;56.028;92.904;2023-05-16T18:01:06;98648.88;;;11.07;52.14
42887;BME280;29032;56.028;92.904;2023-05-16T18:06:10;98646.19;;;10.94;52.69
42887;BME280;29032;56.028;92.904;2023-05-16T18:11:12;98629.06;;;10.82;53.21
42887;BME280;29032;56.028;92.904;2023-05-16T18:16:14;98628.00;;;10.86;52.28
42887;BME280;29032;56.028;92.904;2023-05-16T18:21:18;98614.84;;;10.86;52.87
42887;BME280;29032;56.028;92.904;2023-05-16T18:26:20;98611.66;;;10.82;52.71
42887;BME280;29032;56.028;92.904;2023-05-16T18:31:22;98594.59;;;10.78;52.97
42887;BME280;29032;56.028;92.904;2023-05-16T18:36:26;98584.56;;;10.75;52.63
42887;BME280;29032;56.028;92.904;2023-05-16T18:41:28;98578.63;;;10.71;52.44
42887;BME280;29032;56.028;92.904;2023-05-16T18:46:30;98580.84;;;10.72;52.29
42887;BME280;29032;56.028;92.904;2023-05-16T18:51:34;98567.59;;;10.78;53.66
42887;BME280;29032;56.028;92.904;2023-05-16T18:56:36;98547.94;;;10.76;52.47
42887;BME280;29032;56.028;92.904;2023-05-16T19:01:38;98555.19;;;10.79;51.53
42887;BME280;29032;56.028;92.904;2023-05-16T19:06:41;98547.94;;;10.76;51.69
42887;BME280;29032;56.028;92.904;2023-05-16T19:11:43;98523.88;;;10.71;52.12
42887;BME280;29032;56.028;92.904;2023-05-16T19:16:45;98516.47;;;10.74;51.13
42887;BME280;29032;56.028;92.904;2023-05-16T19:21:49;98506.13;;;10.74;51.25
42887;BME280;29032;56.028;92.904;2023-05-16T19:26:51;98502.06;;;10.75;50.61
42887;BME280;29032;56.028;92.904;2023-05-16T19:31:53;98485.16;;;10.87;50.39
42887;BME280;29032;56.028;92.904;2023-05-16T19:36:56;98482.97;;;10.93;49.71
42887;BME280;29032;56.028;92.904;2023-05-16T19:41:58;98481.66;;;10.94;49.38
42887;BME280;29032;56.028;92.904;2023-05-16T19:47:00;98469.22;;;10.87;49.15
42887;BME280;29032;56.028;92.904;2023-05-16T19:52:05;98461.84;;;10.90;49.08
42887;BME280;29032;56.028;92.904;2023-05-16T19:57:07;98448.81;;;10.77;49.24
42887;BME280;29032;56.028;92.904;2023-05-16T20:02:09;98444.41;;;10.81;49.07
42887;BME280;29032;56.028;92.904;2023-05-16T20:07:12;98427.75;;;10.81;48.67
42887;BME280;29032;56.028;92.904;2023-05-16T20:12:14;98425.84;;;10.76;48.55
42887;BME280;29032;56.028;92.904;2023-05-16T20:17:16;98422.50;;;10.70;48.93
42887;BME280;29032;56.028;92.904;2023-05-16T20:22:20;98416.19;;;10.70;48.90
42887;BME280;29032;56.028;92.904;2023-05-16T20:27:22;98399.50;;;10.62;48.90
42887;BME280;29032;56.028;92.904;2023-05-16T20:32:24;98411.69;;;10.59;49.00
42887;BME280;29032;56.028;92.904;2023-05-16T20:37:27;98414.06;;;10.55;48.76
42887;BME280;29032;56.028;92.904;2023-05-16T20:42:29;98416.25;;;10.49;48.97
42887;BME280;29032;56.028;92.904;2023-05-16T20:47:31;98424.78;;;10.51;48.85
42887;BME280;29032;56.028;92.904;2023-05-16T20:52:35;98382.53;;;10.37;49.11
42887;BME280;29032;56.028;92.904;2023-05-16T20:57:37;98405.00;;;10.54;49.00
42887;BME280;29032;56.028;92.904;2023-05-16T21:02:39;98400.31;;;10.70;48.72
42887;BME280;29032;56.028;92.904;2023-05-16T21:07:42;98432.50;;;10.73;48.95
42887;BME280;29032;56.028;92.904;2023-05-16T21:12:45;98440.41;;;10.69;49.12
42887;BME280;29032;56.028;92.904;2023-05-16T21:17:48;98438.38;;;10.70;48.93
42887;BME280;29032;56.028;92.904;2023-05-16T21:22:51;98436.94;;;10.76;48.87
42887;BME280;29032;56.028;92.904;2023-05-16T21:27:53;98434.16;;;10.76;48.67
42887;BME280;29032;56.028;92.904;2023-05-16T21:38:17;98443.59;;;10.73;48.49
42887;BME280;29032;56.028;92.904;2023-05-16T21:43:19;98441.31;;;10.64;48.72
42887;BME280;29032;56.028;92.904;2023-05-16T21:48:40;98439.94;;;10.50;49.32
42887;BME280;29032;56.028;92.904;2023-05-16T21:54:01;98443.00;;;10.67;48.90
42887;BME280;29032;56.028;92.904;2023-05-16T21:59:22;98452.81;;;10.68;48.76
42887;BME280;29032;56.028;92.904;2023-05-16T22:04:24;98445.38;;;10.63;48.90
42887;BME280;29032;56.028;92.904;2023-05-16T22:09:27;98444.28;;;10.66;48.96
42887;BME280;29032;56.028;92.904;2023-05-16T22:19:49;98454.53;;;10.50;48.55
42887;BME280;29032;56.028;92.904;2023-05-16T22:24:53;98460.09;;;10.50;48.43
42887;BME280;29032;56.028;92.904;2023-05-16T22:29:55;98464.50;;;10.46;48.67
42887;BME280;29032;56.028;92.904;2023-05-16T22:34:57;98474.50;;;10.49;49.05
42887;BME280;29032;56.028;92.904;2023-05-16T22:40:01;98469.16;;;10.51;49.10
42887;BME280;29032;56.028;92.904;2023-05-16T22:45:03;98471.94;;;10.51;49.01
42887;BME280;29032;56.028;92.904;2023-05-16T22:50:06;98489.94;;;10.37;49.48
42887;BME280;29032;56.028;92.904;2023-05-16T23:05:50;98525.50;;;9.23;54.35
42887;BME280;29032;56.028;92.904;2023-05-16T23:11:12;98543.75;;;8.73;54.75
42887;BME280;29032;56.028;92.904;2023-05-16T23:16:14;98550.19;;;8.17;56.85
42887;BME280;29032;56.028;92.904;2023-05-16T23:21:34;98560.94;;;8.01;55.69
42887;BME280;29032;56.028;92.904;2023-05-16T23:26:37;98578.34;;;7.59;57.73
42887;BME280;29032;56.028;92.904;2023-05-16T23:31:40;98585.03;;;7.44;57.76
42887;BME280;29032;56.028;92.904;2023-05-16T23:36:42;98581.59;;;7.14;57.37
42887;BME280;29032;56.028;92.904;2023-05-16T23:41:45;98608.03;;;7.04;56.92
42887;BME280;29032;56.028;92.904;2023-05-16T23:52:07;98648.66;;;6.37;59.33
42887;BME280;29032;56.028;92.904;2023-05-16T23:57:29;98657.78;;;6.21;58.65
